Time;durP1;ratioP1;P1;durP2;ratioP2;P2;SDS_P1;SDS_P2;PMS_P1;PMS_P2;Temp;Humidity;BMP_temperature;BMP_pressure;BME280_temperature;BME280_humidity;BME280_pressure;Samples;Min_cycle;Max_cycle;Signal;HPM_P1;HPM_P2
2022/12/13 00:01:55;;;;;;;7.03;3.70;;;;;;;;;;5058107;27;87809;-55
2022/12/13 00:04:25;;;;;;;7.03;4.07;;;;;;;;;;5057008;27;88149;-55
2022/12/13 00:06:53;;;;;;;6.40;3.60;;;;;;;;;;5060669;27;87226;-54
2022/12/13 00:09:22;;;;;;;7.03;3.33;;;;;;;;;;5062787;27;89470;-55
2022/12/13 00:11:51;;;;;;;4.33;2.80;;;;;;;;;;5074683;27;88841;-55
2022/12/13 00:14:19;;;;;;;4.40;3.23;;;;;;;;;;5068439;27;87066;-55
2022/12/13 00:16:47;;;;;;;4.40;2.93;;;;;;;;;;5074917;27;87063;-56
2022/12/13 00:19:16;;;;;;;5.57;3.40;;;;;;;;;;5062954;27;89068;-55
2022/12/13 00:21:46;;;;;;;4.87;3.17;;;;;;;;;;5062662;27;89163;-55
2022/12/13 00:24:14;;;;;;;4.33;2.23;;;;;;;;;;5062433;27;87063;-55
2022/12/13 00:26:43;;;;;;;6.03;3.03;;;;;;;;;;5063114;27;87634;-56
2022/12/13 00:29:11;;;;;;;4.87;2.97;;;;;;;;;;5062099;27;90107;-55
2022/12/13 00:31:40;;;;;;;4.30;2.90;;;;;;;;;;5063237;27;90156;-55
2022/12/13 00:34:28;;;;;;;5.40;2.53;;;;;;;;;;5062908;27;87040;-56
2022/12/13 00:36:58;;;;;;;5.47;3.10;;;;;;;;;;5062858;27;87043;-56
2022/12/13 00:39:27;;;;;;;5.90;3.70;;;;;;;;;;5062638;27;87115;-55
2022/12/13 00:41:55;;;;;;;4.70;2.40;;;;;;;;;;5066035;27;92002;-55
2022/12/13 00:44:23;;;;;;;3.90;2.63;;;;;;;;;;5074270;27;86933;-56
2022/12/13 00:46:52;;;;;;;5.47;2.27;;;;;;;;;;5064323;27;86147;-55
2022/12/13 00:49:20;;;;;;;3.10;2.07;;;;;;;;;;5067841;27;89238;-56
2022/12/13 00:51:49;;;;;;;2.47;1.83;;;;;;;;;;5083586;27;87715;-56
2022/12/13 00:54:18;;;;;;;4.73;2.27;;;;;;;;;;5072055;27;87988;-54
2022/12/13 00:56:46;;;;;;;2.60;1.83;;;;;;;;;;5063272;27;86981;-55
2022/12/13 00:59:15;;;;;;;2.20;1.83;;;;;;;;;;5062591;27;88991;-54
2022/12/13 01:01:43;;;;;;;1.80;1.67;;;;;;;;;;5062248;27;87690;-54
2022/12/13 01:04:12;;;;;;;3.73;2.03;;;;;;;;;;5063420;27;87034;-54
2022/12/13 01:06:40;;;;;;;4.07;2.07;;;;;;;;;;5078922;27;86953;-55
2022/12/13 01:09:13;;;;;;;2.67;1.63;;;;;;;;;;5078203;27;88839;-54
2022/12/13 01:11:42;;;;;;;2.07;1.57;;;;;;;;;;5071664;27;88881;-54
2022/12/13 01:14:11;;;;;;;3.30;1.90;;;;;;;;;;5081000;27;87232;-54
2022/12/13 01:16:39;;;;;;;2.03;1.50;;;;;;;;;;5082498;27;87038;-54
2022/12/13 01:19:07;;;;;;;3.53;2.20;;;;;;;;;;5076017;27;90020;-54
2022/12/13 01:21:36;;;;;;;2.00;1.70;;;;;;;;;;5079978;27;89570;-55
2022/12/13 01:24:04;;;;;;;3.27;2.23;;;;;;;;;;5080629;27;86909;-53
2022/12/13 01:26:32;;;;;;;6.63;2.13;;;;;;;;;;5082984;27;87010;-55
2022/12/13 01:29:04;;;;;;;3.93;1.90;;;;;;;;;;5083217;27;88050;-55
2022/12/13 01:31:32;;;;;;;3.83;2.17;;;;;;;;;;5075352;27;87934;-56
2022/12/13 01:34:09;;;;;;;4.30;2.00;;;;;;;;;;5072961;27;87007;-57
2022/12/13 01:36:37;;;;;;;2.43;1.70;;;;;;;;;;5078683;27;86244;-55
2022/12/13 01:39:06;;;;;;;2.20;1.83;;;;;;;;;;5076538;27;89162;-54
2022/12/13 01:41:42;;;;;;;2.53;1.63;;;;;;;;;;5075621;27;88946;-54
2022/12/13 01:44:25;;;;;;;3.80;1.70;;;;;;;;;;5065842;27;88216;-54
2022/12/13 01:46:55;;;;;;;1.73;1.57;;;;;;;;;;5062029;27;89192;-53
2022/12/13 01:49:23;;;;;;;2.00;1.23;;;;;;;;;;5062609;27;87793;-53
2022/12/13 01:51:53;;;;;;;2.37;1.53;;;;;;;;;;5062056;27;88848;-53
2022/12/13 01:54:22;;;;;;;2.43;1.43;;;;;;;;;;5062758;27;86876;-54
2022/12/13 01:56:51;;;;;;;2.50;1.80;;;;;;;;;;5064892;27;87521;-53
2022/12/13 01:59:27;;;;;;;1.40;1.30;;;;;;;;;;5082783;27;89071;-53
2022/12/13 02:01:57;;;;;;;3.00;1.93;;;;;;;;;;5071816;27;86522;-56
2022/12/13 02:04:29;;;;;;;1.30;1.20;;;;;;;;;;5062828;27;88599;-56
2022/12/13 02:06:57;;;;;;;2.70;1.37;;;;;;;;;;5074444;27;87059;-54
2022/12/13 02:09:25;;;;;;;1.43;1.33;;;;;;;;;;5073595;27;89819;-54
2022/12/13 02:11:54;;;;;;;1.43;1.33;;;;;;;;;;5078197;27;89852;-54
2022/12/13 02:14:22;;;;;;;2.93;1.63;;;;;;;;;;5077893;27;88438;-54
2022/12/13 02:16:52;;;;;;;1.93;1.30;;;;;;;;;;5062786;27;86958;-54
2022/12/13 02:19:29;;;;;;;2.10;1.50;;;;;;;;;;5062688;27;89056;-54
2022/12/13 02:21:59;;;;;;;2.73;1.83;;;;;;;;;;5062214;27;87631;-55
2022/12/13 02:24:41;;;;;;;1.57;1.23;;;;;;;;;;5061747;27;87508;-54
2022/12/13 02:27:13;;;;;;;2.77;1.40;;;;;;;;;;5062437;27;86253;-54
2022/12/13 02:30:10;;;;;;;1.40;1.30;;;;;;;;;;5061199;27;88081;-54
2022/12/13 02:32:40;;;;;;;1.67;1.37;;;;;;;;;;5057709;27;87771;-54
2022/12/13 02:35:09;;;;;;;2.30;1.10;;;;;;;;;;5060992;27;87949;-54
2022/12/13 02:37:39;;;;;;;1.70;1.50;;;;;;;;;;5062321;27;87031;-54
2022/12/13 02:40:08;;;;;;;1.30;1.20;;;;;;;;;;5060826;27;88140;-54
2022/12/13 02:42:38;;;;;;;2.27;1.47;;;;;;;;;;5060968;27;87095;-54
2022/12/13 02:45:06;;;;;;;1.83;1.50;;;;;;;;;;5061519;27;87016;-54
2022/12/13 02:47:38;;;;;;;1.57;1.10;;;;;;;;;;5061353;27;87307;-54
2022/12/13 02:50:07;;;;;;;1.07;0.97;;;;;;;;;;5060697;27;89116;-54
2022/12/13 02:52:35;;;;;;;1.23;1.07;;;;;;;;;;5061523;27;88853;-54
2022/12/13 02:55:07;;;;;;;1.73;1.13;;;;;;;;;;5061436;27;87005;-55
2022/12/13 02:57:35;;;;;;;1.40;1.20;;;;;;;;;;5062111;27;87077;-53
2022/12/13 03:00:06;;;;;;;2.93;1.60;;;;;;;;;;5060048;27;89935;-54
2022/12/13 03:02:38;;;;;;;2.40;2.13;;;;;;;;;;5061013;27;88731;-54
2022/12/13 03:08:00;;;;;;;3.00;1.40;;;;;;;;;;5061422;27;87064;-54
2022/12/13 03:10:29;;;;;;;1.63;1.10;;;;;;;;;;5060503;27;87279;-53
2022/12/13 03:15:47;;;;;;;1.90;1.13;;;;;;;;;;5060689;27;87010;-54
2022/12/13 03:18:17;;;;;;;1.90;1.63;;;;;;;;;;5061634;27;86292;-54
2022/12/13 03:20:46;;;;;;;1.57;1.07;;;;;;;;;;5061708;27;89051;-54
2022/12/13 03:23:14;;;;;;;1.77;1.30;;;;;;;;;;5064588;27;87887;-54
2022/12/13 03:25:43;;;;;;;1.67;1.57;;;;;;;;;;5065231;27;87874;-55
2022/12/13 03:28:11;;;;;;;0.77;0.77;;;;;;;;;;5064625;27;87246;-54
2022/12/13 03:30:40;;;;;;;1.63;1.10;;;;;;;;;;5064674;27;89196;-54
2022/12/13 03:33:08;;;;;;;1.77;1.00;;;;;;;;;;5064816;27;88647;-54
2022/12/13 03:35:38;;;;;;;3.27;1.67;;;;;;;;;;5064604;27;87010;-55
2022/12/13 03:38:12;;;;;;;2.37;1.07;;;;;;;;;;5064684;27;87496;-54
2022/12/13 03:40:50;;;;;;;1.40;1.30;;;;;;;;;;5063866;27;89130;-54
2022/12/13 03:43:18;;;;;;;3.03;1.47;;;;;;;;;;5064922;27;88784;-54
2022/12/13 03:45:49;;;;;;;2.07;1.20;;;;;;;;;;5063812;27;87345;-54
2022/12/13 03:48:18;;;;;;;2.53;1.17;;;;;;;;;;5064437;27;87038;-53
2022/12/13 03:50:52;;;;;;;1.70;1.07;;;;;;;;;;5063326;27;89574;-53
2022/12/13 03:53:21;;;;;;;1.73;1.13;;;;;;;;;;5064353;27;87778;-54
2022/12/13 03:56:01;;;;;;;1.20;1.10;;;;;;;;;;5064722;27;86835;-54
2022/12/13 03:58:30;;;;;;;1.23;1.00;;;;;;;;;;5064240;27;86989;-54
2022/12/13 04:01:05;;;;;;;2.03;1.40;;;;;;;;;;5064378;27;89094;-54
2022/12/13 04:03:33;;;;;;;1.57;0.83;;;;;;;;;;5063276;27;89035;-53
2022/12/13 04:06:03;;;;;;;1.23;0.97;;;;;;;;;;5048490;27;87055;-53
2022/12/13 04:08:31;;;;;;;1.67;1.10;;;;;;;;;;5064979;27;86267;-54
2022/12/13 04:13:31;;;;;;;1.13;1.07;;;;;;;;;;5063542;27;88605;-53
2022/12/13 04:13:47;;;;;;;1.60;1.10;;;;;;;;;;5063774;27;88744;-54
2022/12/13 04:16:15;;;;;;;1.37;1.07;;;;;;;;;;5063126;27;87867;-53
2022/12/13 04:18:43;;;;;;;2.33;1.20;;;;;;;;;;5064564;27;87048;-53
2022/12/13 04:21:13;;;;;;;1.93;1.33;;;;;;;;;;5063529;27;88084;-54
2022/12/13 04:23:41;;;;;;;1.37;0.93;;;;;;;;;;5064230;27;88579;-54
2022/12/13 04:26:10;;;;;;;2.70;1.27;;;;;;;;;;5064653;27;87001;-56
2022/12/13 04:28:38;;;;;;;2.80;1.57;;;;;;;;;;5063833;27;87037;-54
2022/12/13 04:31:06;;;;;;;1.07;0.97;;;;;;;;;;5063377;27;89137;-53
2022/12/13 04:33:35;;;;;;;1.23;1.13;;;;;;;;;;5062836;27;87963;-54
2022/12/13 04:36:03;;;;;;;4.27;1.40;;;;;;;;;;5063775;27;86932;-54
2022/12/13 04:38:33;;;;;;;1.10;0.90;;;;;;;;;;5064035;27;87025;-54
2022/12/13 04:41:07;;;;;;;1.30;0.90;;;;;;;;;;5062493;27;90008;-54
2022/12/13 04:43:36;;;;;;;2.60;1.50;;;;;;;;;;5063304;27;89474;-54
2022/12/13 04:46:04;;;;;;;2.30;1.33;;;;;;;;;;5061256;27;87508;-54
2022/12/13 04:48:33;;;;;;;1.17;1.07;;;;;;;;;;5062424;27;87030;-54
2022/12/13 04:51:02;;;;;;;3.17;1.17;;;;;;;;;;5062772;27;86970;-55
2022/12/13 04:53:32;;;;;;;1.10;0.80;;;;;;;;;;5063058;27;87766;-53
2022/12/13 04:56:02;;;;;;;1.73;1.13;;;;;;;;;;5062707;27;87690;-54
2022/12/13 04:58:31;;;;;;;1.13;1.00;;;;;;;;;;5062985;27;86444;-54
2022/12/13 05:00:59;;;;;;;1.27;0.97;;;;;;;;;;5062892;27;88873;-54
2022/12/13 05:03:28;;;;;;;0.83;0.80;;;;;;;;;;5062018;27;88507;-54
2022/12/13 05:05:56;;;;;;;1.53;1.00;;;;;;;;;;5062801;27;87869;-54
2022/12/13 05:08:25;;;;;;;3.70;0.80;;;;;;;;;;5063675;27;87043;-54
2022/12/13 05:10:56;;;;;;;1.93;1.23;;;;;;;;;;5062634;27;89243;-54
2022/12/13 05:13:25;;;;;;;1.27;1.17;;;;;;;;;;5062773;27;88205;-54
2022/12/13 05:15:56;;;;;;;1.60;1.30;;;;;;;;;;5061713;27;86996;-55
2022/12/13 05:18:24;;;;;;;1.33;1.00;;;;;;;;;;5060559;27;87275;-54
2022/12/13 05:20:53;;;;;;;1.43;1.13;;;;;;;;;;5061593;27;89267;-56
2022/12/13 05:23:21;;;;;;;1.70;1.07;;;;;;;;;;5061737;27;88587;-56
2022/12/13 05:25:50;;;;;;;1.33;1.20;;;;;;;;;;5062898;27;87120;-56
2022/12/13 05:28:19;;;;;;;1.33;0.93;;;;;;;;;;5062458;27;87092;-56
2022/12/13 05:30:55;;;;;;;0.70;0.60;;;;;;;;;;5062339;27;90176;-56
2022/12/13 05:33:24;;;;;;;2.73;1.57;;;;;;;;;;5062340;27;89939;-54
2022/12/13 05:35:52;;;;;;;1.40;1.30;;;;;;;;;;5063151;27;86935;-55
2022/12/13 05:38:27;;;;;;;1.43;0.70;;;;;;;;;;5062884;27;87355;-53
2022/12/13 05:40:56;;;;;;;1.43;1.30;;;;;;;;;;5062527;27;89197;-55
2022/12/13 05:43:25;;;;;;;1.50;0.80;;;;;;;;;;5062503;27;87750;-54
2022/12/13 05:46:10;;;;;;;1.90;1.03;;;;;;;;;;5062933;27;87030;-55
2022/12/13 05:48:39;;;;;;;2.10;1.10;;;;;;;;;;5062874;27;86171;-54
2022/12/13 05:51:07;;;;;;;1.27;1.17;;;;;;;;;;5061950;27;89145;-55
2022/12/13 05:53:38;;;;;;;2.10;1.20;;;;;;;;;;5062679;27;87727;-55
2022/12/13 05:56:07;;;;;;;2.17;1.43;;;;;;;;;;5061938;27;87910;-54
2022/12/13 05:58:37;;;;;;;2.20;1.43;;;;;;;;;;5062338;27;87204;-54
2022/12/13 06:01:06;;;;;;;1.03;0.97;;;;;;;;;;5062664;27;88984;-53
2022/12/13 06:03:34;;;;;;;1.87;1.07;;;;;;;;;;5062219;27;88800;-54
2022/12/13 06:06:03;;;;;;;1.40;1.10;;;;;;;;;;5062395;27;87085;-56
2022/12/13 06:08:31;;;;;;;2.37;1.30;;;;;;;;;;5062572;27;86812;-56
2022/12/13 06:11:00;;;;;;;7.00;1.53;;;;;;;;;;5062667;27;89307;-55
2022/12/13 06:13:40;;;;;;;2.33;1.53;;;;;;;;;;5063255;27;88725;-56
2022/12/13 06:16:11;;;;;;;2.13;1.30;;;;;;;;;;5062478;27;87068;-56
2022/12/13 06:18:50;;;;;;;1.40;0.80;;;;;;;;;;5061899;27;87002;-56
2022/12/13 06:21:28;;;;;;;1.63;1.37;;;;;;;;;;5061689;27;88971;-56
2022/12/13 06:24:12;;;;;;;3.13;1.30;;;;;;;;;;5062191;27;89696;-56
2022/12/13 06:26:40;;;;;;;1.17;0.90;;;;;;;;;;5061777;27;87054;-56
2022/12/13 06:29:10;;;;;;;2.13;1.40;;;;;;;;;;5062390;27;87001;-55
2022/12/13 06:31:38;;;;;;;1.20;1.20;;;;;;;;;;5061825;27;89380;-55
2022/12/13 06:34:07;;;;;;;2.43;1.17;;;;;;;;;;5061701;27;89144;-55
2022/12/13 06:36:42;;;;;;;1.63;1.20;;;;;;;;;;5061712;27;87190;-56
2022/12/13 06:39:10;;;;;;;2.07;1.37;;;;;;;;;;5062747;27;86766;-55
2022/12/13 06:41:38;;;;;;;1.17;1.07;;;;;;;;;;5061705;27;88039;-55
2022/12/13 06:44:07;;;;;;;2.83;1.33;;;;;;;;;;5062074;27;88196;-55
2022/12/13 06:46:36;;;;;;;1.90;1.60;;;;;;;;;;5069011;27;87943;-56
2022/12/13 06:49:08;;;;;;;1.87;1.10;;;;;;;;;;5047104;27;87098;-56
2022/12/13 06:51:36;;;;;;;4.13;1.90;;;;;;;;;;5069533;27;88093;-56
2022/12/13 06:54:04;;;;;;;2.73;2.00;;;;;;;;;;5082163;27;88821;-56
2022/12/13 06:56:33;;;;;;;2.43;1.50;;;;;;;;;;5070802;27;87334;-56
2022/12/13 06:59:01;;;;;;;2.17;1.70;;;;;;;;;;5062224;27;87073;-56
2022/12/13 07:01:30;;;;;;;4.97;1.73;;;;;;;;;;5051624;27;88290;-53
2022/12/13 07:04:07;;;;;;;2.13;1.37;;;;;;;;;;5063718;27;88797;-56
2022/12/13 07:06:56;;;;;;;3.70;1.50;;;;;;;;;;5081998;27;86887;-56
2022/12/13 07:09:29;;;;;;;1.33;1.10;;;;;;;;;;5082322;27;87391;-56
2022/12/13 07:11:58;;;;;;;1.93;1.20;;;;;;;;;;5080635;27;90141;-55
2022/12/13 07:14:26;;;;;;;1.27;1.07;;;;;;;;;;5063122;27;89601;-55
2022/12/13 07:16:54;;;;;;;1.63;1.37;;;;;;;;;;5071385;27;87020;-55
2022/12/13 07:19:32;;;;;;;2.07;1.80;;;;;;;;;;5080379;27;87062;-55
2022/12/13 07:22:04;;;;;;;1.33;1.23;;;;;;;;;;5081356;27;89101;-56
2022/12/13 07:24:33;;;;;;;2.60;1.83;;;;;;;;;;5080216;27;88900;-56
2022/12/13 07:27:01;;;;;;;2.63;1.50;;;;;;;;;;5080597;27;86991;-56
2022/12/13 07:29:29;;;;;;;0.90;0.90;;;;;;;;;;5082296;27;86246;-56
2022/12/13 07:31:58;;;;;;;2.90;1.30;;;;;;;;;;5067574;27;86864;-55
2022/12/13 07:34:29;;;;;;;5.60;1.20;;;;;;;;;;5070550;27;90383;-55
2022/12/13 07:36:59;;;;;;;1.83;1.40;;;;;;;;;;5080089;27;87927;-56
2022/12/13 07:39:27;;;;;;;1.20;1.10;;;;;;;;;;5055544;27;87069;-56
2022/12/13 07:41:56;;;;;;;2.13;1.33;;;;;;;;;;5052395;27;87879;-56
2022/12/13 07:44:24;;;;;;;1.10;0.93;;;;;;;;;;5060233;27;86945;-56
2022/12/13 07:46:52;;;;;;;4.07;1.63;;;;;;;;;;5061141;27;87009;-55
2022/12/13 07:49:21;;;;;;;3.63;1.40;;;;;;;;;;5047450;27;87516;-56
2022/12/13 07:51:49;;;;;;;3.13;1.70;;;;;;;;;;5056365;27;88018;-57
2022/12/13 07:54:19;;;;;;;1.07;1.07;;;;;;;;;;5044501;27;87578;-56
2022/12/13 07:56:47;;;;;;;2.43;1.47;;;;;;;;;;5041396;27;86989;-56
2022/12/13 07:59:15;;;;;;;1.97;1.67;;;;;;;;;;5048897;27;87126;-57
2022/12/13 08:01:56;;;;;;;3.17;1.50;;;;;;;;;;5058100;27;89007;-57
2022/12/13 08:04:29;;;;;;;1.43;1.23;;;;;;;;;;5050589;27;89743;-56
2022/12/13 08:07:07;;;;;;;0.90;0.90;;;;;;;;;;5054248;27;89026;-56
2022/12/13 08:09:37;;;;;;;1.10;1.00;;;;;;;;;;5058535;27;87042;-56
2022/12/13 08:12:06;;;;;;;2.90;1.53;;;;;;;;;;5072562;27;88985;-56
2022/12/13 08:14:34;;;;;;;1.87;1.20;;;;;;;;;;5063906;27;88883;-56
2022/12/13 08:17:03;;;;;;;1.40;1.30;;;;;;;;;;5064184;27;87116;-55
2022/12/13 08:19:31;;;;;;;2.13;1.80;;;;;;;;;;5057923;27;86253;-56
2022/12/13 08:21:59;;;;;;;0.97;0.97;;;;;;;;;;5042567;27;88221;-55
2022/12/13 08:24:29;;;;;;;1.27;1.17;;;;;;;;;;5041155;28;88848;-55
2022/12/13 08:27:00;;;;;;;1.97;1.27;;;;;;;;;;5041939;27;88221;-56
2022/12/13 08:29:29;;;;;;;2.50;1.40;;;;;;;;;;5042980;27;86928;-57
2022/12/13 08:32:02;;;;;;;2.27;1.30;;;;;;;;;;5043380;28;88985;-55
2022/12/13 08:34:30;;;;;;;2.30;1.40;;;;;;;;;;5043665;28;88835;-56
2022/12/13 08:36:59;;;;;;;1.80;1.23;;;;;;;;;;5043523;27;86902;-56
2022/12/13 08:39:30;;;;;;;2.30;1.60;;;;;;;;;;5044087;27;86876;-57
2022/12/13 08:42:03;;;;;;;2.30;1.50;;;;;;;;;;5053043;27;88362;-56
2022/12/13 08:44:44;;;;;;;4.13;1.07;;;;;;;;;;5064236;27;87668;-57
2022/12/13 08:47:13;;;;;;;1.30;1.20;;;;;;;;;;5064260;27;87131;-56
2022/12/13 08:49:52;;;;;;;1.73;1.43;;;;;;;;;;5064153;27;87077;-56
2022/12/13 08:52:21;;;;;;;1.40;1.30;;;;;;;;;;5061767;27;90136;-56
2022/12/13 08:54:50;;;;;;;2.00;1.00;;;;;;;;;;5063397;27;89888;-56
2022/12/13 08:57:19;;;;;;;3.33;1.43;;;;;;;;;;5063764;27;87068;-55
2022/12/13 08:59:48;;;;;;;1.60;1.40;;;;;;;;;;5063918;27;86915;-55
2022/12/13 09:02:16;;;;;;;1.03;1.03;;;;;;;;;;5062629;27;89054;-55
2022/12/13 09:04:44;;;;;;;2.87;1.37;;;;;;;;;;5063112;27;88710;-54
2022/12/13 09:07:13;;;;;;;2.77;1.43;;;;;;;;;;5063826;27;87006;-54
2022/12/13 09:09:41;;;;;;;1.70;1.20;;;;;;;;;;5064017;27;86159;-55
2022/12/13 09:12:10;;;;;;;1.60;1.40;;;;;;;;;;5063406;27;88092;-53
2022/12/13 09:14:59;;;;;;;2.30;1.30;;;;;;;;;;5063478;27;87694;-54
2022/12/13 09:17:30;;;;;;;3.53;1.47;;;;;;;;;;5062832;27;88102;-54
2022/12/13 09:20:05;;;;;;;2.67;1.40;;;;;;;;;;5062860;27;86914;-55
2022/12/13 09:22:54;;;;;;;1.40;1.27;;;;;;;;;;5062977;27;86905;-54
2022/12/13 09:25:30;;;;;;;2.33;1.47;;;;;;;;;;5063155;27;87736;-53
2022/12/13 09:28:05;;;;;;;0.80;0.80;;;;;;;;;;5062948;27;87004;-54
2022/12/13 09:30:35;;;;;;;1.97;1.37;;;;;;;;;;5063239;27;87122;-54
2022/12/13 09:33:03;;;;;;;2.00;1.47;;;;;;;;;;5062752;27;89083;-53
2022/12/13 09:35:52;;;;;;;3.17;1.20;;;;;;;;;;5063275;27;87438;-53
2022/12/13 09:38:20;;;;;;;3.73;1.60;;;;;;;;;;5063108;27;87663;-53
2022/12/13 09:40:49;;;;;;;1.60;1.30;;;;;;;;;;5063013;27;86983;-54
2022/12/13 09:43:26;;;;;;;1.70;1.00;;;;;;;;;;5061713;27;90147;-55
2022/12/13 09:46:01;;;;;;;1.63;1.10;;;;;;;;;;5062963;27;89838;-54
2022/12/13 09:48:29;;;;;;;1.20;1.03;;;;;;;;;;5063061;27;86991;-53
2022/12/13 09:51:02;;;;;;;3.57;2.07;;;;;;;;;;5061986;27;86963;-54
2022/12/13 09:53:51;;;;;;;3.50;1.23;;;;;;;;;;5062676;27;87631;-54
2022/12/13 09:56:20;;;;;;;2.27;1.43;;;;;;;;;;5062507;27;87957;-54
2022/12/13 09:58:48;;;;;;;1.23;1.10;;;;;;;;;;5063148;27;87013;-54
2022/12/13 10:01:18;;;;;;;1.47;1.30;;;;;;;;;;5063006;27;86336;-54
2022/12/13 10:03:51;;;;;;;2.10;1.10;;;;;;;;;;5062587;27;87025;-54
2022/12/13 10:06:20;;;;;;;1.97;1.00;;;;;;;;;;5062802;27;87795;-54
2022/12/13 10:08:52;;;;;;;1.93;1.30;;;;;;;;;;5062250;27;88006;-54
2022/12/13 10:11:25;;;;;;;3.03;1.20;;;;;;;;;;5062735;27;86943;-54
2022/12/13 10:14:00;;;;;;;1.47;1.03;;;;;;;;;;5062482;27;89139;-54
2022/12/13 10:16:31;;;;;;;1.30;1.10;;;;;;;;;;5062205;27;88863;-54
2022/12/13 10:19:04;;;;;;;1.43;1.17;;;;;;;;;;5062124;27;87091;-52
2022/12/13 10:21:33;;;;;;;1.90;1.27;;;;;;;;;;5062246;27;86910;-54
2022/12/13 10:24:03;;;;;;;0.90;0.90;;;;;;;;;;5061796;27;88169;-52
2022/12/13 10:26:51;;;;;;;3.87;0.90;;;;;;;;;;5062459;27;88240;-53
2022/12/13 10:29:19;;;;;;;1.77;1.63;;;;;;;;;;5062248;27;87012;-54
2022/12/13 10:31:49;;;;;;;2.13;1.40;;;;;;;;;;5061775;27;87168;-54
2022/12/13 10:34:21;;;;;;;2.30;1.30;;;;;;;;;;5061858;27;90049;-53
2022/12/13 10:36:50;;;;;;;1.40;0.87;;;;;;;;;;5061588;27;90085;-54
2022/12/13 10:39:19;;;;;;;1.30;1.00;;;;;;;;;;5061776;27;86931;-54
2022/12/13 10:41:47;;;;;;;1.53;1.20;;;;;;;;;;5062075;27;89332;-54
2022/12/13 10:44:25;;;;;;;1.60;1.10;;;;;;;;;;5062030;27;89201;-53
2022/12/13 10:47:14;;;;;;;2.50;1.47;;;;;;;;;;5061466;27;88489;-53
2022/12/13 10:49:50;;;;;;;1.50;1.40;;;;;;;;;;5058564;27;87119;-54
2022/12/13 10:52:27;;;;;;;1.10;1.00;;;;;;;;;;5061771;27;86231;-54
2022/12/13 10:55:01;;;;;;;1.20;1.10;;;;;;;;;;5061603;27;89128;-53
2022/12/13 10:57:29;;;;;;;1.90;1.70;;;;;;;;;;5061354;27;88932;-54
2022/12/13 10:59:57;;;;;;;3.03;1.30;;;;;;;;;;5061368;27;87942;-54
2022/12/13 11:02:28;;;;;;;1.87;1.53;;;;;;;;;;5062185;27;87033;-53
2022/12/13 11:04:58;;;;;;;3.43;1.50;;;;;;;;;;5061973;27;87947;-53
2022/12/13 11:07:28;;;;;;;1.50;1.10;;;;;;;;;;5060635;27;88989;-53
2022/12/13 11:09:56;;;;;;;2.13;1.40;;;;;;;;;;5060759;27;86937;-53
2022/12/13 11:12:33;;;;;;;1.30;1.20;;;;;;;;;;5061890;27;86726;-54
2022/12/13 11:15:02;;;;;;;1.57;1.23;;;;;;;;;;5061470;27;88302;-54
2022/12/13 11:17:31;;;;;;;1.17;1.17;;;;;;;;;;5062096;27;88880;-55
2022/12/13 11:20:01;;;;;;;1.17;1.00;;;;;;;;;;5061976;27;86995;-54
2022/12/13 11:22:30;;;;;;;1.73;1.10;;;;;;;;;;5060669;27;87219;-53
2022/12/13 11:24:59;;;;;;;1.80;1.47;;;;;;;;;;5060245;27;89101;-53
2022/12/13 11:27:38;;;;;;;2.37;1.50;;;;;;;;;;5061416;27;89798;-54
2022/12/13 11:30:10;;;;;;;1.10;1.00;;;;;;;;;;5061669;27;87028;-52
2022/12/13 11:32:42;;;;;;;3.00;1.63;;;;;;;;;;5061487;27;86884;-54
2022/12/13 11:35:14;;;;;;;1.37;1.13;;;;;;;;;;5061586;27;87978;-54
2022/12/13 11:37:44;;;;;;;2.87;1.27;;;;;;;;;;5061556;27;88757;-53
2022/12/13 11:40:14;;;;;;;1.37;1.27;;;;;;;;;;5061595;27;86919;-55
2022/12/13 11:42:44;;;;;;;2.57;1.27;;;;;;;;;;5062906;27;87207;-53
2022/12/13 11:45:14;;;;;;;3.10;1.43;;;;;;;;;;5064601;27;87121;-54
2022/12/13 11:47:51;;;;;;;2.47;1.50;;;;;;;;;;5065002;27;87766;-53
2022/12/13 11:50:29;;;;;;;1.43;1.13;;;;;;;;;;5064467;27;87957;-53
2022/12/13 11:53:15;;;;;;;1.40;1.30;;;;;;;;;;5064580;27;87021;-53
2022/12/13 11:55:45;;;;;;;1.80;1.03;;;;;;;;;;5064534;27;88837;-55
2022/12/13 11:58:15;;;;;;;2.73;1.53;;;;;;;;;;5064589;27;88865;-53
2022/12/13 12:01:05;;;;;;;2.73;1.50;;;;;;;;;;5064988;27;86886;-54
2022/12/13 12:03:35;;;;;;;1.33;1.23;;;;;;;;;;5064604;27;87000;-54
2022/12/13 12:06:08;;;;;;;1.33;1.23;;;;;;;;;;5064004;27;88266;-53
2022/12/13 12:08:38;;;;;;;1.93;1.60;;;;;;;;;;5064921;27;88668;-54
2022/12/13 12:11:08;;;;;;;2.67;2.00;;;;;;;;;;5064670;27;86920;-54
2022/12/13 12:13:38;;;;;;;3.60;1.47;;;;;;;;;;5064522;27;86724;-54
2022/12/13 12:16:21;;;;;;;1.60;1.47;;;;;;;;;;5063420;27;90356;-54
2022/12/13 12:18:50;;;;;;;1.43;1.33;;;;;;;;;;5064061;27;88625;-54
2022/12/13 12:21:30;;;;;;;1.47;1.37;;;;;;;;;;5063763;27;87712;-53
2022/12/13 12:24:19;;;;;;;2.50;1.43;;;;;;;;;;5064119;27;87045;-54
2022/12/13 12:26:49;;;;;;;1.40;1.30;;;;;;;;;;5063399;27;87134;-54
2022/12/13 12:29:22;;;;;;;1.77;1.60;;;;;;;;;;5063705;27;87730;-54
2022/12/13 12:31:52;;;;;;;2.40;1.60;;;;;;;;;;5064635;27;86734;-53
2022/12/13 12:34:24;;;;;;;1.40;1.30;;;;;;;;;;5064378;27;86214;-53
2022/12/13 12:36:59;;;;;;;1.83;1.30;;;;;;;;;;5064211;27;89155;-54
2022/12/13 12:39:34;;;;;;;2.77;1.67;;;;;;;;;;5064099;27;86959;-56
2022/12/13 12:42:10;;;;;;;1.50;1.40;;;;;;;;;;5063242;27;87975;-55
2022/12/13 12:44:40;;;;;;;3.63;1.60;;;;;;;;;;5063526;27;86962;-54
2022/12/13 12:47:13;;;;;;;2.30;1.43;;;;;;;;;;5063440;27;89037;-53
2022/12/13 12:50:09;;;;;;;2.67;1.60;;;;;;;;;;5062777;27;87444;-53
2022/12/13 12:52:42;;;;;;;1.37;1.07;;;;;;;;;;5063355;27;86966;-56
2022/12/13 12:55:12;;;;;;;1.53;1.23;;;;;;;;;;5062566;27;86862;-55
2022/12/13 12:57:44;;;;;;;2.50;1.30;;;;;;;;;;5063440;27;88145;-54
2022/12/13 13:00:14;;;;;;;2.37;1.77;;;;;;;;;;5063548;27;89046;-54
2022/12/13 13:02:43;;;;;;;5.67;1.53;;;;;;;;;;5063041;27;87084;-54
2022/12/13 13:05:15;;;;;;;3.30;1.40;;;;;;;;;;5063117;27;86948;-54
2022/12/13 13:07:46;;;;;;;1.47;1.30;;;;;;;;;;5063182;27;88805;-54
2022/12/13 13:10:18;;;;;;;4.80;1.60;;;;;;;;;;5063168;27;89825;-53
2022/12/13 13:12:54;;;;;;;2.83;2.07;;;;;;;;;;5063037;27;87123;-54
2022/12/13 13:15:56;;;;;;;3.00;1.50;;;;;;;;;;5063591;27;86938;-54
2022/12/13 13:18:44;;;;;;;2.20;1.77;;;;;;;;;;5063210;27;88458;-54
2022/12/13 13:21:25;;;;;;;3.10;1.87;;;;;;;;;;5062579;27;88969;-54
2022/12/13 13:24:06;;;;;;;3.07;1.77;;;;;;;;;;5063797;27;86892;-53
2022/12/13 13:26:35;;;;;;;1.93;1.60;;;;;;;;;;5063429;27;86249;-54
2022/12/13 13:29:22;;;;;;;2.33;1.47;;;;;;;;;;5063076;27;89401;-54
2022/12/13 13:31:55;;;;;;;2.77;1.47;;;;;;;;;;5062613;27;88908;-53
2022/12/13 13:34:30;;;;;;;2.00;1.77;;;;;;;;;;5062455;27;87903;-54
2022/12/13 13:36:58;;;;;;;2.47;1.67;;;;;;;;;;5062969;27;86925;-55
2022/12/13 13:39:54;;;;;;;2.33;1.90;;;;;;;;;;5062355;27;87889;-56
2022/12/13 13:42:24;;;;;;;5.07;1.70;;;;;;;;;;5026795;27;87074;-54
2022/12/13 13:45:07;;;;;;;2.87;1.93;;;;;;;;;;5063283;27;86743;-54
2022/12/13 13:47:38;;;;;;;2.23;1.93;;;;;;;;;;5063264;27;86956;-56
2022/12/13 13:50:17;;;;;;;4.70;2.40;;;;;;;;;;5062131;27;88146;-55
2022/12/13 13:52:47;;;;;;;5.20;2.10;;;;;;;;;;5062423;27;86321;-56
2022/12/13 13:55:30;;;;;;;2.63;1.93;;;;;;;;;;5063171;27;87084;-56
2022/12/13 13:58:16;;;;;;;1.63;1.37;;;;;;;;;;5062995;27;86904;-56
2022/12/13 14:00:58;;;;;;;3.27;2.27;;;;;;;;;;5061907;27;89648;-56
2022/12/13 14:03:42;;;;;;;3.13;2.57;;;;;;;;;;5062698;27;89791;-56
2022/12/13 14:06:30;;;;;;;1.90;1.63;;;;;;;;;;5063017;27;87006;-55
2022/12/13 14:09:05;;;;;;;5.53;2.00;;;;;;;;;;5062606;27;86942;-55
2022/12/13 14:11:54;;;;;;;2.57;1.70;;;;;;;;;;5062531;27;89112;-56
2022/12/13 14:14:44;;;;;;;2.67;2.20;;;;;;;;;;5036486;27;88822;-55
2022/12/13 14:17:32;;;;;;;4.60;2.33;;;;;;;;;;5062239;27;87027;-56
2022/12/13 14:20:11;;;;;;;2.70;1.97;;;;;;;;;;5062953;27;86147;-55
2022/12/13 14:22:40;;;;;;;4.23;1.93;;;;;;;;;;5062024;27;89131;-54
2022/12/13 14:25:23;;;;;;;3.57;2.37;;;;;;;;;;5062579;27;89140;-55
2022/12/13 14:28:08;;;;;;;2.93;2.57;;;;;;;;;;5061256;27;87974;-55
2022/12/13 14:30:38;;;;;;;2.87;2.40;;;;;;;;;;5062413;27;87063;-55
2022/12/13 14:33:06;;;;;;;3.13;2.70;;;;;;;;;;5062364;27;88998;-55
2022/12/13 14:35:36;;;;;;;3.43;2.57;;;;;;;;;;5062156;27;87746;-54
2022/12/13 14:38:05;;;;;;;2.60;2.13;;;;;;;;;;5062435;27;86907;-55
2022/12/13 14:40:34;;;;;;;8.40;2.93;;;;;;;;;;5062260;27;87010;-55
2022/12/13 14:43:02;;;;;;;5.00;2.53;;;;;;;;;;5063279;27;89013;-55
2022/12/13 14:45:31;;;;;;;2.50;2.30;;;;;;;;;;5082732;27;87637;-56
2022/12/13 14:48:00;;;;;;;3.67;2.40;;;;;;;;;;5082930;27;86821;-55
2022/12/13 14:50:28;;;;;;;4.23;2.53;;;;;;;;;;5082928;27;86816;-55
2022/12/13 14:53:01;;;;;;;4.47;2.83;;;;;;;;;;5080480;27;90045;-55
2022/12/13 14:55:30;;;;;;;3.77;2.43;;;;;;;;;;5081922;27;88899;-54
2022/12/13 14:57:59;;;;;;;6.00;2.67;;;;;;;;;;5081992;27;87021;-55
2022/12/13 15:00:28;;;;;;;3.07;2.50;;;;;;;;;;5082292;27;87007;-55
2022/12/13 15:02:58;;;;;;;4.50;2.60;;;;;;;;;;5081712;27;89009;-55
2022/12/13 15:05:27;;;;;;;3.77;2.67;;;;;;;;;;5082009;27;88916;-55
2022/12/13 15:07:56;;;;;;;6.93;2.80;;;;;;;;;;5082575;27;86864;-55
2022/12/13 15:10:27;;;;;;;3.30;2.60;;;;;;;;;;5082690;27;86223;-55
2022/12/13 15:12:55;;;;;;;5.53;2.33;;;;;;;;;;5082276;27;86973;-56
2022/12/13 15:15:25;;;;;;;3.70;2.20;;;;;;;;;;5081988;27;88891;-55
2022/12/13 15:18:07;;;;;;;2.73;2.17;;;;;;;;;;5084217;27;87830;-54